createdAt,value
2017-10-05T00:00:15.206Z,12.51
2017-10-05T00:01:25.454Z,12.5
2017-10-05T00:02:35.701Z,12.48
2017-10-05T00:03:45.638Z,12.5
2017-10-05T00:04:55.578Z,12.51
2017-10-05T00:06:05.769Z,12.43
2017-10-05T00:07:15.384Z,12.39
2017-10-05T00:08:24.999Z,12.5
2017-10-05T00:09:34.934Z,12.44
2017-10-05T00:10:45.198Z,12.39
2017-10-05T00:11:55.803Z,12.4
2017-10-05T00:13:06.052Z,12.43
2017-10-05T00:14:15.998Z,12.36
2017-10-05T00:15:26.247Z,12.35
2017-10-05T00:16:36.492Z,12.37
2017-10-05T00:17:47.085Z,12.44
2017-10-05T00:18:57.347Z,12.29
2017-10-05T00:20:07.600Z,12.39
2017-10-05T00:21:17.541Z,12.32
2017-10-05T00:22:27.801Z,12.32
2017-10-05T00:23:38.402Z,12.32
2017-10-05T00:24:48.333Z,12.39
2017-10-05T00:25:57.961Z,12.33
2017-10-05T00:27:08.212Z,12.3
2017-10-05T00:28:18.459Z,12.35
2017-10-05T00:29:28.685Z,12.3
2017-10-05T00:30:38.950Z,12.28
2017-10-05T00:31:49.202Z,12.26
2017-10-05T00:32:59.442Z,12.2
2017-10-05T00:34:09.690Z,12.21
2017-10-05T00:35:19.982Z,12.25
2017-10-05T00:36:30.240Z,12.18
2017-10-05T00:37:39.855Z,12.29
2017-10-05T00:38:49.794Z,12.14
2017-10-05T00:40:00.047Z,12.17
2017-10-05T00:41:10.330Z,12.17
2017-10-05T00:42:20.574Z,12.18
2017-10-05T00:43:30.846Z,12.03
2017-10-05T00:44:41.089Z,12.1
2017-10-05T00:45:51.024Z,12.08
2017-10-05T00:47:01.581Z,12.15
2017-10-05T00:48:11.519Z,12.05
2017-10-05T00:49:21.145Z,12.17
2017-10-05T00:50:31.119Z,12.14
2017-10-05T00:51:41.383Z,12.14
2017-10-05T00:52:51.928Z,12.18
2017-10-05T00:54:02.191Z,12.1
2017-10-05T00:55:12.455Z,12.17
2017-10-05T00:56:22.705Z,12.05
2017-10-05T00:57:32.638Z,12.1
2017-10-05T00:58:43.130Z,12.07
2017-10-05T00:59:53.082Z,12.08
2017-10-05T01:01:03.343Z,12.08
2017-10-05T01:02:13.279Z,12.08
2017-10-05T01:03:23.221Z,12.05
2017-10-05T01:04:33.716Z,12.08
2017-10-05T01:05:43.965Z,12.1
2017-10-05T01:06:54.207Z,12.1
2017-10-05T01:08:04.458Z,12.05
2017-10-05T01:09:14.390Z,11.99
2017-10-05T01:10:24.264Z,12.07
2017-10-05T01:11:34.516Z,12.07
2017-10-05T01:12:44.443Z,12.07
2017-10-05T01:13:54.379Z,12.03
2017-10-05T01:15:04.320Z,12.1
2017-10-05T01:16:14.557Z,12.1
2017-10-05T01:17:24.502Z,12.07
2017-10-05T01:18:34.439Z,12.03
2017-10-05T01:19:44.380Z,12.08
2017-10-05T01:20:54.637Z,12.08
2017-10-05T01:22:04.920Z,12.11
2017-10-05T01:23:15.166Z,12.08
2017-10-05T01:24:25.427Z,12.07
2017-10-05T01:25:35.359Z,12.03
2017-10-05T01:26:45.291Z,12.03
2017-10-05T01:27:55.807Z,12.08
2017-10-05T01:29:05.749Z,12.03
2017-10-05T01:30:15.685Z,12.07
2017-10-05T01:31:25.930Z,12.08
2017-10-05T01:32:36.182Z,12.08
2017-10-05T01:33:46.095Z,12.03
2017-10-05T01:34:56.337Z,12.08
2017-10-05T01:36:06.265Z,12.11
2017-10-05T01:37:16.526Z,12.15
2017-10-05T01:38:26.778Z,12.11
2017-10-05T01:39:37.326Z,12.1
2017-10-05T01:40:47.576Z,12.14
2017-10-05T01:41:57.821Z,12.14
2017-10-05T01:43:08.074Z,12.07
2017-10-05T01:44:18.326Z,12.07
2017-10-05T01:45:28.507Z,12.03
2017-10-05T01:46:38.437Z,12.08
2017-10-05T01:47:48.404Z,12.07
2017-10-05T01:48:58.648Z,12.14
2017-10-05T01:50:08.904Z,12.14
2017-10-05T01:51:19.423Z,12.03
2017-10-05T01:52:29.672Z,12.03
2017-10-05T01:53:39.595Z,12.05
2017-10-05T01:54:49.837Z,12.07
2017-10-05T01:55:59.768Z,12.05
2017-10-05T01:57:10.007Z,12.12
2017-10-05T01:58:19.947Z,12.08
2017-10-05T01:59:30.198Z,12.11
2017-10-05T02:00:40.449Z,12.1
2017-10-05T02:01:50.379Z,12.12
2017-10-05T02:03:00.669Z,12.1
2017-10-05T02:04:10.923Z,12.1
2017-10-05T02:05:21.165Z,12.14
2017-10-05T02:06:31.418Z,12.17
2017-10-05T02:07:41.668Z,12.14
2017-10-05T02:08:51.847Z,12.12
2017-10-05T02:10:02.091Z,12.1
2017-10-05T02:11:11.719Z,12.14
2017-10-05T02:12:21.968Z,12.2
2017-10-05T02:13:32.221Z,12.2
2017-10-05T02:14:42.401Z,12.15
2017-10-05T02:15:52.650Z,12.17
2017-10-05T02:17:02.916Z,12.2
2017-10-05T02:18:13.165Z,12.18
2017-10-05T02:19:23.435Z,12.2
2017-10-05T02:20:33.726Z,12.25
2017-10-05T02:21:43.983Z,12.23
2017-10-05T02:22:54.238Z,12.2
2017-10-05T02:24:04.487Z,12.2
2017-10-05T02:25:14.743Z,12.23
2017-10-05T02:26:25.344Z,12.17
2017-10-05T02:27:35.273Z,12.23
2017-10-05T02:28:44.585Z,12.25
2017-10-05T02:29:54.839Z,12.15
2017-10-05T02:31:05.087Z,12.15
2017-10-05T02:32:15.686Z,12.26
2017-10-05T02:33:25.932Z,12.26
2017-10-05T02:34:36.182Z,12.29
2017-10-05T02:35:46.444Z,12.25
2017-10-05T02:36:56.693Z,12.12
2017-10-05T02:38:06.893Z,12.17
2017-10-05T02:39:17.158Z,12.21
2017-10-05T02:40:27.428Z,12.11
2017-10-05T02:41:37.716Z,12.2
2017-10-05T02:42:47.989Z,12.26
2017-10-05T02:43:58.247Z,12.29
2017-10-05T02:45:08.490Z,12.15
2017-10-05T02:46:18.433Z,12.21
2017-10-05T02:47:28.723Z,12.21
2017-10-05T02:48:38.970Z,12.17
2017-10-05T02:49:49.527Z,12.25
2017-10-05T02:50:59.788Z,12.2
2017-10-05T02:52:09.409Z,12.26
2017-10-05T02:53:19.021Z,12.28
2017-10-05T02:54:28.652Z,12.29
2017-10-05T02:55:39.155Z,12.29
2017-10-05T02:56:49.409Z,12.23
2017-10-05T02:57:59.029Z,12.2
2017-10-05T02:59:08.963Z,12.28
2017-10-05T03:00:19.212Z,12.23
2017-10-05T03:01:29.712Z,12.18
2017-10-05T03:02:39.642Z,12.17
2017-10-05T03:03:49.258Z,12.26
2017-10-05T03:04:59.508Z,12.28
2017-10-05T03:06:09.772Z,12.11
2017-10-05T03:07:19.642Z,12.25
2017-10-05T03:08:29.882Z,12.18
2017-10-05T03:09:39.822Z,12.25
2017-10-05T03:10:50.068Z,12.17
2017-10-05T03:12:00.332Z,12.18
2017-10-05T03:13:10.885Z,12.1
2017-10-05T03:14:20.819Z,12.1
2017-10-05T03:15:31.071Z,12.07
2017-10-05T03:16:41.322Z,12.02
2017-10-05T03:17:51.276Z,12.05
2017-10-05T03:19:01.454Z,11.97
2017-10-05T03:20:11.703Z,11.95
2017-10-05T03:21:21.954Z,11.95
2017-10-05T03:22:32.201Z,11.88
2017-10-05T03:23:42.147Z,11.96
2017-10-05T03:24:52.326Z,11.86
2017-10-05T03:26:01.942Z,11.78
2017-10-05T03:27:12.199Z,11.73
2017-10-05T03:28:22.444Z,11.76
2017-10-05T03:29:32.685Z,11.65
2017-10-05T03:30:42.878Z,11.71
2017-10-05T03:31:53.137Z,11.56
2017-10-05T03:33:03.386Z,11.55
2017-10-05T03:34:12.693Z,11.51
2017-10-05T03:35:22.937Z,11.45
2017-10-05T03:36:33.442Z,11.56
2017-10-05T03:37:43.685Z,11.49
2017-10-05T03:38:53.623Z,11.49
2017-10-05T03:40:03.913Z,11.48
2017-10-05T03:41:14.163Z,11.37
2017-10-05T03:42:24.765Z,11.38
2017-10-05T03:43:35.009Z,11.23
2017-10-05T03:44:45.262Z,11.33
2017-10-05T03:45:55.531Z,11.33
2017-10-05T03:47:05.785Z,11.23
2017-10-05T03:48:16.329Z,11.3
2017-10-05T03:49:26.583Z,11.22
2017-10-05T03:50:36.836Z,11.23
2017-10-05T03:51:47.095Z,11.2
2017-10-05T03:52:57.349Z,11.23
2017-10-05T03:54:07.964Z,11.18
2017-10-05T03:55:18.382Z,11.19
2017-10-05T03:56:28.309Z,11.16
2017-10-05T03:57:38.556Z,11.1
2017-10-05T03:58:48.799Z,11.08
2017-10-05T03:59:59.404Z,11.05
2017-10-05T04:01:09.334Z,11.07
2017-10-05T04:02:19.586Z,10.97
2017-10-05T04:03:29.840Z,10.97
2017-10-05T04:04:39.783Z,11.01
2017-10-05T04:05:49.964Z,10.92
2017-10-05T04:06:59.896Z,10.94
2017-10-05T04:08:09.834Z,10.83
2017-10-05T04:09:20.073Z,10.97
2017-10-05T04:10:30.000Z,10.83
2017-10-05T04:11:40.614Z,10.87
2017-10-05T04:12:50.543Z,10.86
2017-10-05T04:14:00.785Z,10.77
2017-10-05T04:15:10.409Z,10.77
2017-10-05T04:16:20.655Z,10.77
2017-10-05T04:17:30.950Z,10.79
2017-10-05T04:18:41.201Z,10.8
2017-10-05T04:19:51.446Z,10.79
2017-10-05T04:21:01.686Z,10.71
2017-10-05T04:22:11.308Z,10.69
2017-10-05T04:23:21.857Z,10.68
2017-10-05T04:24:31.806Z,10.68
2017-10-05T04:25:41.754Z,10.68
2017-10-05T04:26:52.004Z,10.61
2017-10-05T04:28:02.260Z,10.64
2017-10-05T04:29:12.806Z,10.61
2017-10-05T04:30:23.057Z,10.61
2017-10-05T04:31:33.313Z,10.59
2017-10-05T04:32:42.931Z,10.53
2017-10-05T04:33:53.179Z,10.53
2017-10-05T04:35:03.773Z,10.53
2017-10-05T04:36:13.705Z,10.53
2017-10-05T04:37:23.945Z,10.53
2017-10-05T04:38:33.891Z,10.55
2017-10-05T04:39:44.139Z,10.53
2017-10-05T04:40:54.013Z,10.48
2017-10-05T04:42:04.259Z,10.53
2017-10-05T04:43:14.185Z,10.51
2017-10-05T04:44:24.136Z,10.45
2017-10-05T04:45:34.389Z,10.46
2017-10-05T04:46:44.925Z,10.42
2017-10-05T04:47:55.169Z,10.38
2017-10-05T04:49:05.121Z,10.39
2017-10-05T04:50:15.365Z,10.42
2017-10-05T04:51:25.617Z,10.42
2017-10-05T04:52:36.205Z,10.42
2017-10-05T04:53:46.132Z,10.42
2017-10-05T04:54:55.763Z,10.39
2017-10-05T04:56:06.005Z,10.36
2017-10-05T04:57:16.255Z,10.39
2017-10-05T04:58:26.445Z,10.36
2017-10-05T04:59:36.693Z,10.43
2017-10-05T05:00:46.951Z,10.39
2017-10-05T05:01:56.888Z,10.3
2017-10-05T05:03:06.505Z,10.38
2017-10-05T05:04:17.004Z,10.25
2017-10-05T05:05:27.268Z,10.24
2017-10-05T05:06:36.887Z,10.36
2017-10-05T05:07:47.127Z,10.28
2017-10-05T05:08:57.061Z,10.24
2017-10-05T05:10:07.623Z,10.18
2017-10-05T05:11:17.878Z,10.23
2017-10-05T05:12:27.805Z,10.28
2017-10-05T05:13:38.052Z,10.23
2017-10-05T05:14:48.295Z,10.27
2017-10-05T05:15:58.220Z,10.23
2017-10-05T05:17:08.474Z,10.25
2017-10-05T05:18:18.720Z,10.24
2017-10-05T05:19:29.212Z,10.18
2017-10-05T05:20:39.453Z,10.21
2017-10-05T05:21:49.696Z,10.3
2017-10-05T05:22:59.929Z,10.31
2017-10-05T05:24:09.875Z,10.25
2017-10-05T05:25:20.124Z,10.21
2017-10-05T05:26:30.386Z,10.27
2017-10-05T05:27:40.567Z,10.31
2017-10-05T05:28:50.824Z,10.25
2017-10-05T05:30:00.766Z,10.28
2017-10-05T05:31:11.011Z,10.24
2017-10-05T05:32:21.259Z,10.28
2017-10-05T05:33:31.744Z,10.24
2017-10-05T05:34:41.691Z,10.25
2017-10-05T05:35:51.630Z,10.18
2017-10-05T05:37:01.566Z,10.24
2017-10-05T05:38:11.496Z,10.28
2017-10-05T05:39:21.998Z,10.25
2017-10-05T05:40:32.247Z,10.28
2017-10-05T05:41:42.503Z,10.18
2017-10-05T05:42:52.771Z,10.25
2017-10-05T05:44:03.059Z,10.27
2017-10-05T05:45:13.673Z,10.3
2017-10-05T05:46:23.932Z,10.31
2017-10-05T05:47:34.202Z,10.2
2017-10-05T05:48:44.462Z,10.23
2017-10-05T05:49:54.726Z,10.34
2017-10-05T05:51:05.238Z,10.2
2017-10-05T05:52:15.479Z,10.23
2017-10-05T05:53:25.420Z,10.23
2017-10-05T05:54:35.667Z,10.25
2017-10-05T05:55:45.922Z,10.24
2017-10-05T05:56:56.185Z,10.23
2017-10-05T05:58:06.447Z,10.2
2017-10-05T05:59:16.711Z,10.23
2017-10-05T06:00:26.978Z,10.3
2017-10-05T06:01:36.940Z,10.2
2017-10-05T06:02:47.503Z,10.23
2017-10-05T06:03:57.749Z,10.15
2017-10-05T06:05:07.996Z,10.21
2017-10-05T06:06:18.249Z,10.23
2017-10-05T06:07:28.509Z,10.23
2017-10-05T06:08:38.438Z,10.2
2017-10-05T06:09:48.368Z,10.25
2017-10-05T06:10:58.625Z,10.24
2017-10-05T06:12:08.884Z,10.25
2017-10-05T06:13:19.138Z,10.23
2017-10-05T06:14:29.736Z,10.25
2017-10-05T06:15:40.004Z,10.2
2017-10-05T06:16:50.260Z,10.28
2017-10-05T06:18:00.531Z,10.31
2017-10-05T06:19:10.796Z,10.36
2017-10-05T06:20:21.349Z,10.31
2017-10-05T06:21:31.606Z,10.31
2017-10-05T06:22:41.531Z,10.31
2017-10-05T06:23:51.784Z,10.18
2017-10-05T06:25:02.049Z,10.31
2017-10-05T06:26:12.597Z,10.34
2017-10-05T06:27:22.547Z,10.2
2017-10-05T06:28:32.805Z,10.21
2017-10-05T06:29:43.048Z,10.28
2017-10-05T06:30:53.317Z,10.23
2017-10-05T06:32:03.951Z,10.24
2017-10-05T06:33:14.197Z,10.39
2017-10-05T06:34:24.129Z,10.27
2017-10-05T06:35:34.073Z,10.2
2017-10-05T06:36:44.334Z,10.25
2017-10-05T06:37:54.573Z,10.33
2017-10-05T06:39:04.836Z,10.3
2017-10-05T06:40:14.780Z,10.31
2017-10-05T06:41:24.735Z,10.33
2017-10-05T06:42:34.689Z,10.38
2017-10-05T06:43:45.191Z,10.39
2017-10-05T06:44:55.431Z,10.33
2017-10-05T06:46:05.741Z,10.38
2017-10-05T06:47:16.010Z,10.38
2017-10-05T06:48:26.264Z,10.36
2017-10-05T06:49:36.844Z,10.34
2017-10-05T06:50:46.807Z,10.36
2017-10-05T06:51:57.072Z,10.39
2017-10-05T06:53:07.360Z,10.34
2017-10-05T06:54:17.333Z,10.38
2017-10-05T06:55:27.855Z,10.41
2017-10-05T06:56:38.130Z,10.39
2017-10-05T06:57:48.398Z,10.39
2017-10-05T06:58:58.924Z,10.34
2017-10-05T07:00:09.221Z,10.36
2017-10-05T07:01:19.734Z,10.39
2017-10-05T07:02:29.687Z,10.39
2017-10-05T07:03:39.627Z,10.43
2017-10-05T07:04:49.884Z,10.45
2017-10-05T07:05:59.823Z,10.42
2017-10-05T07:07:10.361Z,10.43
2017-10-05T07:08:20.646Z,10.34
2017-10-05T07:09:30.935Z,10.42
2017-10-05T07:10:41.217Z,10.46
2017-10-05T07:11:51.499Z,10.43
2017-10-05T07:13:02.031Z,10.39
2017-10-05T07:14:12.313Z,10.43
2017-10-05T07:15:22.246Z,10.46
2017-10-05T07:16:32.499Z,10.49
2017-10-05T07:17:42.468Z,10.48
2017-10-05T07:18:52.746Z,10.53
2017-10-05T07:20:03.243Z,10.42
2017-10-05T07:21:13.218Z,10.53
2017-10-05T07:22:23.161Z,10.51
2017-10-05T07:23:33.103Z,10.46
2017-10-05T07:24:43.623Z,10.46
2017-10-05T07:25:53.887Z,10.41
2017-10-05T07:27:04.164Z,10.51
2017-10-05T07:28:14.428Z,10.53
2017-10-05T07:29:24.377Z,10.49
2017-10-05T07:30:34.625Z,10.43
2017-10-05T07:31:44.565Z,10.43
2017-10-05T07:32:54.504Z,10.46
2017-10-05T07:34:04.453Z,10.48
2017-10-05T07:35:14.712Z,10.45
2017-10-05T07:36:25.240Z,10.43
2017-10-05T07:37:35.525Z,10.43
2017-10-05T07:38:46.014Z,10.42
2017-10-05T07:39:55.648Z,10.49
2017-10-05T07:41:06.193Z,10.43
2017-10-05T07:42:16.497Z,10.45
2017-10-05T07:43:26.768Z,10.39
2017-10-05T07:44:37.046Z,10.43
2017-10-05T07:45:47.002Z,10.45
2017-10-05T07:46:57.289Z,10.41
2017-10-05T07:48:07.881Z,10.49
2017-10-05T07:49:18.174Z,10.43
2017-10-05T07:50:28.121Z,10.51
2017-10-05T07:51:38.366Z,10.41
2017-10-05T07:52:48.745Z,10.45
2017-10-05T07:53:59.062Z,10.42
2017-10-05T07:55:09.387Z,10.49
2017-10-05T07:56:19.659Z,10.51
2017-10-05T07:57:29.618Z,10.49
2017-10-05T07:58:39.871Z,10.42
2017-10-05T07:59:50.070Z,10.41
2017-10-05T08:01:00.358Z,10.53
2017-10-05T08:02:10.316Z,10.49
2017-10-05T08:03:20.576Z,10.55
2017-10-05T08:04:30.840Z,10.53
2017-10-05T08:05:41.113Z,10.53
2017-10-05T08:06:51.387Z,10.55
2017-10-05T08:08:01.353Z,10.55
2017-10-05T08:09:11.596Z,10.55
2017-10-05T08:10:21.533Z,10.45
2017-10-05T08:11:32.089Z,10.51
2017-10-05T08:12:42.390Z,10.42
2017-10-05T08:13:52.322Z,10.51
2017-10-05T08:15:02.255Z,10.59
2017-10-05T08:16:12.542Z,10.49
2017-10-05T08:17:22.749Z,10.55
2017-10-05T08:18:33.035Z,10.46
2017-10-05T08:19:43.318Z,10.58
2017-10-05T08:20:53.276Z,10.45
2017-10-05T08:22:03.555Z,10.45
2017-10-05T08:23:14.128Z,10.57
2017-10-05T08:24:24.473Z,10.49
2017-10-05T08:25:34.791Z,10.51
2017-10-05T08:26:45.047Z,10.51
2017-10-05T08:27:55.313Z,10.57
2017-10-05T08:29:05.505Z,10.59
2017-10-05T08:30:15.771Z,10.51
2017-10-05T08:31:26.035Z,10.55
2017-10-05T08:32:35.671Z,10.53
2017-10-05T08:33:45.927Z,10.48
2017-10-05T08:34:56.461Z,10.51
2017-10-05T08:36:06.703Z,10.55
2017-10-05T08:37:16.638Z,10.51
2017-10-05T08:38:27.138Z,10.58
2017-10-05T08:39:37.395Z,10.59
2017-10-05T08:40:47.573Z,10.57
2017-10-05T08:41:57.876Z,10.55
2017-10-05T08:43:08.151Z,10.61
2017-10-05T08:44:18.122Z,10.55
2017-10-05T08:45:28.087Z,10.53
2017-10-05T08:46:38.921Z,10.58
2017-10-05T08:47:48.882Z,10.53
2017-10-05T08:48:59.176Z,10.51
2017-10-05T08:50:08.848Z,10.53
2017-10-05T08:51:18.793Z,10.57
2017-10-05T08:52:29.435Z,10.53
2017-10-05T08:53:39.396Z,10.62
2017-10-05T08:54:49.774Z,10.62
2017-10-05T08:55:59.756Z,10.62
2017-10-05T08:57:09.714Z,10.62
2017-10-05T08:58:20.289Z,10.58
2017-10-05T08:59:30.253Z,10.67
2017-10-05T09:00:40.528Z,10.62
2017-10-05T09:01:50.821Z,10.61
2017-10-05T09:03:01.116Z,10.62
2017-10-05T09:04:11.324Z,10.59
2017-10-05T09:05:21.614Z,10.72
2017-10-05T09:06:32.092Z,10.61
2017-10-05T09:07:42.360Z,10.59
2017-10-05T09:08:52.605Z,10.62
2017-10-05T09:10:03.199Z,10.62
2017-10-05T09:11:13.376Z,10.65
2017-10-05T09:12:23.582Z,10.68
2017-10-05T09:13:33.858Z,10.61
2017-10-05T09:14:44.178Z,10.65
2017-10-05T09:15:54.985Z,10.69
2017-10-05T09:17:05.246Z,10.64
2017-10-05T09:18:15.515Z,10.68
2017-10-05T09:19:25.473Z,10.68
2017-10-05T09:20:35.098Z,10.65
2017-10-05T09:21:45.283Z,10.71
2017-10-05T09:22:55.553Z,10.64
2017-10-05T09:24:05.848Z,10.71
2017-10-05T09:25:16.110Z,10.69
2017-10-05T09:26:26.421Z,10.76
2017-10-05T09:27:36.363Z,10.76
2017-10-05T09:28:46.638Z,10.82
2017-10-05T09:29:56.593Z,10.8
2017-10-05T09:31:06.851Z,10.76
2017-10-05T09:32:17.121Z,10.79
2017-10-05T09:33:27.322Z,10.72
2017-10-05T09:34:37.574Z,10.82
2017-10-05T09:35:47.534Z,10.79
2017-10-05T09:36:57.802Z,10.71
2017-10-05T09:38:07.753Z,10.77
2017-10-05T09:39:18.251Z,10.83
2017-10-05T09:40:28.745Z,10.8
2017-10-05T09:41:38.700Z,10.82
2017-10-05T09:42:48.978Z,10.77
2017-10-05T09:43:59.233Z,10.77
2017-10-05T09:45:09.428Z,10.86
2017-10-05T09:46:19.679Z,10.9
2017-10-05T09:47:29.616Z,10.84
2017-10-05T09:48:39.860Z,10.86
2017-10-05T09:49:50.114Z,10.86
2017-10-05T09:51:00.680Z,10.83
2017-10-05T09:52:10.938Z,10.83
2017-10-05T09:53:21.188Z,10.84
2017-10-05T09:54:30.498Z,10.8
2017-10-05T09:55:40.754Z,10.87
2017-10-05T09:56:51.509Z,10.87
2017-10-05T09:58:01.454Z,10.86
2017-10-05T09:59:11.708Z,10.89
2017-10-05T10:00:21.983Z,10.84
2017-10-05T10:01:32.381Z,10.87
2017-10-05T10:02:42.914Z,10.84
2017-10-05T10:03:52.880Z,10.86
2017-10-05T10:05:02.814Z,10.87
2017-10-05T10:06:12.758Z,10.9
2017-10-05T10:07:23.045Z,10.83
2017-10-05T10:08:33.247Z,10.83
2017-10-05T10:09:43.182Z,10.89
2017-10-05T10:10:53.133Z,10.86
2017-10-05T10:12:03.389Z,10.84
2017-10-05T10:13:13.334Z,10.95
2017-10-05T10:14:23.214Z,10.94
2017-10-05T10:15:33.466Z,10.84
2017-10-05T10:16:43.727Z,10.89
2017-10-05T10:17:53.677Z,10.87
2017-10-05T10:19:03.625Z,10.89
2017-10-05T10:20:14.337Z,10.95
2017-10-05T10:21:24.275Z,10.92
2017-10-05T10:22:34.535Z,10.98
2017-10-05T10:23:44.777Z,10.94
2017-10-05T10:24:54.719Z,10.9
2017-10-05T10:26:05.243Z,10.95
2017-10-05T10:27:15.495Z,10.95
2017-10-05T10:28:25.758Z,10.9
2017-10-05T10:29:35.692Z,10.98
2017-10-05T10:30:45.969Z,10.92
2017-10-05T10:31:56.489Z,10.94
2017-10-05T10:33:06.794Z,10.97
2017-10-05T10:34:17.051Z,10.94
2017-10-05T10:35:27.005Z,10.97
2017-10-05T10:36:37.301Z,10.95
2017-10-05T10:37:47.197Z,10.98
2017-10-05T10:38:57.454Z,10.94
2017-10-05T10:40:07.407Z,10.87
2017-10-05T10:41:17.666Z,10.97
2017-10-05T10:42:27.922Z,11
2017-10-05T10:43:38.446Z,11.02
2017-10-05T10:44:48.690Z,10.97
2017-10-05T10:45:58.959Z,10.98
2017-10-05T10:47:09.256Z,10.94
2017-10-05T10:48:19.526Z,10.92
2017-10-05T10:49:30.028Z,10.92
2017-10-05T10:50:40.292Z,11.02
2017-10-05T10:51:50.550Z,10.95
2017-10-05T10:53:00.495Z,11.01
2017-10-05T10:54:10.773Z,11.01
2017-10-05T10:55:21.339Z,10.87
2017-10-05T10:56:31.288Z,11.02
2017-10-05T10:57:41.225Z,11.02
2017-10-05T10:58:51.481Z,10.98
2017-10-05T11:00:01.739Z,11
2017-10-05T11:01:11.953Z,11
2017-10-05T11:02:22.229Z,10.98
2017-10-05T11:03:32.486Z,11.05
2017-10-05T11:04:42.740Z,11.07
2017-10-05T11:05:52.713Z,11.02
2017-10-05T11:07:03.213Z,11.07
2017-10-05T11:08:13.472Z,11.02
2017-10-05T11:09:23.767Z,11.01
2017-10-05T11:10:34.058Z,11.01
2017-10-05T11:11:44.322Z,11.02
2017-10-05T11:12:54.842Z,11.12
2017-10-05T11:14:05.113Z,11.1
2017-10-05T11:15:15.399Z,11.07
2017-10-05T11:16:25.707Z,11.05
2017-10-05T11:17:35.966Z,11.13
2017-10-05T11:18:46.217Z,11.08
2017-10-05T11:19:56.472Z,11.1
2017-10-05T11:21:06.740Z,11.13
2017-10-05T11:22:16.694Z,11.16
2017-10-05T11:23:26.631Z,11.18
2017-10-05T11:24:36.880Z,11.22
2017-10-05T11:25:47.141Z,11.18
2017-10-05T11:26:57.404Z,11.22
2017-10-05T11:28:07.670Z,11.2
2017-10-05T11:29:17.932Z,11.26
2017-10-05T11:30:28.448Z,11.22
2017-10-05T11:31:38.709Z,11.22
2017-10-05T11:32:48.976Z,11.23
2017-10-05T11:33:59.243Z,11.3
2017-10-05T11:35:09.505Z,11.33
2017-10-05T11:36:20.028Z,11.23
2017-10-05T11:37:30.037Z,11.23
2017-10-05T11:38:40.376Z,11.35
2017-10-05T11:39:50.317Z,11.25
2017-10-05T11:41:00.591Z,11.34
2017-10-05T11:42:11.108Z,11.35
2017-10-05T11:43:21.365Z,11.43
2017-10-05T11:44:31.668Z,11.4
2017-10-05T11:45:41.929Z,11.43
2017-10-05T11:46:52.173Z,11.43
2017-10-05T11:48:02.683Z,11.44
2017-10-05T11:49:12.639Z,11.44
2017-10-05T11:50:22.891Z,11.59
2017-10-05T11:51:33.148Z,11.56
2017-10-05T11:52:43.406Z,11.49
2017-10-05T11:53:53.984Z,11.55
2017-10-05T11:55:04.239Z,11.55
2017-10-05T11:56:14.485Z,11.55
2017-10-05T11:57:24.445Z,11.63
2017-10-05T11:58:34.397Z,11.74
2017-10-05T11:59:44.282Z,11.8
2017-10-05T12:00:54.223Z,11.76
2017-10-05T12:02:04.494Z,11.83
2017-10-05T12:03:14.748Z,11.95
2017-10-05T12:04:25.020Z,11.91
2017-10-05T12:05:35.215Z,11.96
2017-10-05T12:06:45.434Z,11.97
2017-10-05T12:07:55.388Z,11.97
2017-10-05T12:09:05.652Z,12.05
2017-10-05T12:10:15.619Z,12.21
2017-10-05T12:11:26.148Z,12.3
2017-10-05T12:12:36.440Z,12.33
2017-10-05T12:13:46.715Z,12.33
2017-10-05T12:14:56.954Z,12.45
2017-10-05T12:16:07.222Z,12.55
2017-10-05T12:17:17.424Z,12.51
2017-10-05T12:18:27.663Z,12.47
2017-10-05T12:19:37.347Z,12.53
2017-10-05T12:20:47.613Z,12.68
2017-10-05T12:21:57.874Z,12.69
2017-10-05T12:23:08.405Z,12.8
2017-10-05T12:24:18.658Z,12.83
2017-10-05T12:25:28.943Z,12.87
2017-10-05T12:26:39.198Z,12.87
2017-10-05T12:27:49.453Z,12.95
2017-10-05T12:28:59.964Z,13.02
2017-10-05T12:30:10.230Z,13.08
2017-10-05T12:31:19.849Z,13.13
2017-10-05T12:32:30.121Z,13.11
2017-10-05T12:33:40.378Z,13.12
2017-10-05T12:34:50.895Z,13.13
2017-10-05T12:36:00.847Z,13.23
2017-10-05T12:37:11.109Z,13.24
2017-10-05T12:38:21.400Z,13.26
2017-10-05T12:39:31.686Z,13.31
2017-10-05T12:40:42.252Z,13.28
2017-10-05T12:41:52.498Z,13.36
2017-10-05T12:43:02.760Z,13.33
2017-10-05T12:44:12.712Z,13.37
2017-10-05T12:45:22.032Z,13.33
2017-10-05T12:46:32.536Z,13.31
2017-10-05T12:47:42.474Z,13.45
2017-10-05T12:48:52.098Z,13.43
2017-10-05T12:50:02.363Z,13.5
2017-10-05T12:51:11.990Z,13.57
2017-10-05T12:52:21.865Z,13.57
2017-10-05T12:53:32.162Z,13.52
2017-10-05T12:54:42.409Z,13.6
2017-10-05T12:55:52.671Z,13.6
2017-10-05T12:57:02.620Z,13.64
2017-10-05T12:58:12.808Z,13.6
2017-10-05T12:59:22.766Z,13.64
2017-10-05T13:00:33.026Z,13.65
2017-10-05T13:01:42.978Z,13.7
2017-10-05T13:02:53.243Z,13.64
2017-10-05T13:04:03.752Z,13.64
2017-10-05T13:05:13.167Z,13.65
2017-10-05T13:06:23.444Z,13.67
2017-10-05T13:07:33.709Z,13.65
2017-10-05T13:08:43.330Z,13.67
2017-10-05T13:09:53.849Z,13.61
2017-10-05T13:11:04.105Z,13.67
2017-10-05T13:12:14.068Z,13.68
2017-10-05T13:13:24.013Z,13.65
2017-10-05T13:14:34.272Z,13.62
2017-10-05T13:15:44.461Z,13.6
2017-10-05T13:16:54.722Z,13.67
2017-10-05T13:18:04.981Z,13.73
2017-10-05T13:19:15.237Z,13.61
2017-10-05T13:20:25.494Z,13.65
2017-10-05T13:21:36.004Z,13.62
2017-10-05T13:22:46.288Z,13.67
2017-10-05T13:23:56.561Z,13.76
2017-10-05T13:25:06.814Z,13.76
2017-10-05T13:26:17.061Z,13.83
2017-10-05T13:27:27.569Z,13.91
2017-10-05T13:28:37.826Z,13.93
2017-10-05T13:29:48.074Z,13.94
2017-10-05T13:30:58.025Z,14.03
2017-10-05T13:32:07.651Z,14.05
2017-10-05T13:33:18.165Z,13.95
2017-10-05T13:34:28.105Z,14
2017-10-05T13:35:38.374Z,13.94
2017-10-05T13:36:48.640Z,13.98
2017-10-05T13:37:58.249Z,14.03
2017-10-05T13:39:08.446Z,14
2017-10-05T13:40:18.714Z,14
2017-10-05T13:41:28.990Z,13.95
2017-10-05T13:42:39.255Z,14.04
2017-10-05T13:43:49.510Z,13.95
2017-10-05T13:44:59.705Z,14.03
2017-10-05T13:46:09.954Z,14.05
2017-10-05T13:47:19.265Z,14.04
2017-10-05T13:48:29.228Z,14.19
2017-10-05T13:49:39.498Z,14.25
2017-10-05T13:50:50.007Z,14.22
2017-10-05T13:52:00.267Z,14.28
2017-10-05T13:53:10.781Z,14.37
2017-10-05T13:54:21.035Z,14.43
2017-10-05T13:55:31.292Z,14.56
2017-10-05T13:56:41.494Z,14.44
2017-10-05T13:57:51.760Z,14.67
2017-10-05T13:59:02.008Z,14.78
2017-10-05T14:00:12.263Z,14.73
2017-10-05T14:01:22.557Z,14.77
2017-10-05T14:02:32.894Z,14.77
2017-10-05T14:03:43.149Z,14.87
2017-10-05T14:04:53.437Z,14.87
2017-10-05T14:06:03.383Z,14.86
2017-10-05T14:07:13.344Z,14.87
2017-10-05T14:08:23.547Z,14.92
2017-10-05T14:09:33.841Z,14.81
2017-10-05T14:10:44.102Z,14.4
2017-10-05T14:11:54.054Z,14.03
2017-10-05T14:13:04.317Z,13.4
2017-10-05T14:14:14.822Z,12.93
2017-10-05T14:15:24.133Z,12.76
2017-10-05T14:16:34.074Z,12.54
2017-10-05T14:17:44.327Z,12.18
2017-10-05T14:18:54.265Z,11.86
2017-10-05T14:20:04.200Z,11.68
2017-10-05T14:21:14.125Z,11.52
2017-10-05T14:22:24.382Z,11.53
2017-10-05T14:23:34.646Z,11.45
2017-10-05T14:24:44.574Z,11.53
2017-10-05T14:25:54.777Z,11.67
2017-10-05T14:27:05.035Z,11.71
2017-10-05T14:28:15.283Z,11.63
2017-10-05T14:29:25.538Z,11.76
2017-10-05T14:30:35.163Z,11.67
2017-10-05T14:31:45.348Z,11.74
2017-10-05T14:32:55.605Z,11.78
2017-10-05T14:34:05.540Z,11.86
2017-10-05T14:35:15.501Z,11.77
2017-10-05T14:36:25.782Z,11.77
2017-10-05T14:37:35.977Z,11.67
2017-10-05T14:38:45.915Z,11.65
2017-10-05T14:39:56.181Z,11.65
2017-10-05T14:41:06.424Z,11.52
2017-10-05T14:42:16.682Z,11.6
2017-10-05T14:43:27.189Z,11.55
2017-10-05T14:44:37.450Z,11.53
2017-10-05T14:45:47.729Z,11.51
2017-10-05T14:46:57.985Z,11.59
2017-10-05T14:48:08.247Z,11.53
2017-10-05T14:49:18.434Z,11.59
2017-10-05T14:50:28.684Z,11.56
2017-10-05T14:51:38.944Z,11.59
2017-10-05T14:52:48.888Z,11.51
2017-10-05T14:53:59.147Z,11.52
2017-10-05T14:55:09.649Z,11.49
2017-10-05T14:56:19.927Z,11.49
2017-10-05T14:57:29.871Z,11.45
2017-10-05T14:58:39.495Z,11.49
2017-10-05T14:59:49.430Z,11.34
2017-10-05T15:00:59.677Z,11.35
2017-10-05T15:02:09.944Z,11.2
2017-10-05T15:03:20.207Z,11.23
2017-10-05T15:04:30.483Z,11.27
2017-10-05T15:05:40.741Z,11.27
2017-10-05T15:06:50.955Z,11.16